sensor_id;sensor_type;location;lat;lon;timestamp;pressure;altitude;pressure_sealevel;temperature;humidity
72685;BME280;61365;52.162;4.500;2022-12-19T00:01:26;101615.41;;;0.23;100.00
72685;BME280;61365;52.162;4.500;2022-12-19T00:03:57;101606.53;;;0.18;100.00
72685;BME280;61365;52.162;4.500;2022-12-19T00:06:26;101595.16;;;0.31;100.00
72685;BME280;61365;52.162;4.500;2022-12-19T00:08:54;101594.69;;;0.38;100.00
72685;BME280;61365;52.162;4.500;2022-12-19T00:11:23;101606.53;;;0.34;100.00
72685;BME280;61365;52.162;4.500;2022-12-19T00:13:51;101603.16;;;0.35;100.00
72685;BME280;61365;52.162;4.500;2022-12-19T00:16:20;101603.47;;;0.41;100.00
72685;BME280;61365;52.162;4.500;2022-12-19T00:18:50;101605.59;;;0.49;100.00
72685;BME280;61365;52.162;4.500;2022-12-19T00:21:19;101605.06;;;0.56;100.00
72685;BME280;61365;52.162;4.500;2022-12-19T00:23:48;101582.56;;;0.53;100.00
72685;BME280;61365;52.162;4.500;2022-12-19T00:29:04;101565.69;;;0.60;100.00
72685;BME280;61365;52.162;4.500;2022-12-19T00:31:33;101566.81;;;0.65;100.00
72685;BME280;61365;52.162;4.500;2022-12-19T00:34:01;101563.06;;;0.77;100.00
72685;BME280;61365;52.162;4.500;2022-12-19T00:36:31;101557.78;;;0.73;100.00
72685;BME280;61365;52.162;4.500;2022-12-19T00:39:00;101554.94;;;0.69;100.00
72685;BME280;61365;52.162;4.500;2022-12-19T00:41:30;101547.28;;;0.70;100.00
72685;BME280;61365;52.162;4.500;2022-12-19T00:44:00;101540.50;;;0.72;100.00
72685;BME280;61365;52.162;4.500;2022-12-19T00:46:29;101540.88;;;0.80;100.00
72685;BME280;61365;52.162;4.500;2022-12-19T00:48:58;101542.13;;;0.88;100.00
72685;BME280;61365;52.162;4.500;2022-12-19T00:51:27;101539.47;;;0.87;100.00
72685;BME280;61365;52.162;4.500;2022-12-19T00:53:57;101535.34;;;0.90;100.00
72685;BME280;61365;52.162;4.500;2022-12-19T00:56:26;101534.78;;;0.96;100.00
72685;BME280;61365;52.162;4.500;2022-12-19T00:58:55;101519.78;;;0.89;100.00
72685;BME280;61365;52.162;4.500;2022-12-19T01:01:28;101523.00;;;0.85;100.00
72685;BME280;61365;52.162;4.500;2022-12-19T01:04:01;101518.31;;;0.94;100.00
72685;BME280;61365;52.162;4.500;2022-12-19T01:06:28;101507.81;;;0.91;100.00
72685;BME280;61365;52.162;4.500;2022-12-19T01:08:55;101519.72;;;0.87;100.00
72685;BME280;61365;52.162;4.500;2022-12-19T01:11:21;101505.75;;;1.02;100.00
72685;BME280;61365;52.162;4.500;2022-12-19T01:14:09;101508.41;;;1.03;100.00
72685;BME280;61365;52.162;4.500;2022-12-19T01:16:37;101509.97;;;1.00;100.00
72685;BME280;61365;52.162;4.500;2022-12-19T01:19:03;101506.94;;;1.09;100.00
72685;BME280;61365;52.162;4.500;2022-12-19T01:21:30;101502.06;;;1.15;100.00
72685;BME280;61365;52.162;4.500;2022-12-19T01:23:56;101503.09;;;1.18;100.00
72685;BME280;61365;52.162;4.500;2022-12-19T01:26:23;101499.31;;;1.12;100.00
72685;BME280;61365;52.162;4.500;2022-12-19T01:28:49;101483.16;;;1.16;100.00
72685;BME280;61365;52.162;4.500;2022-12-19T01:31:16;101478.69;;;1.31;100.00
72685;BME280;61365;52.162;4.500;2022-12-19T01:33:42;101485.13;;;1.40;100.00
72685;BME280;61365;52.162;4.500;2022-12-19T01:36:08;101476.63;;;1.42;100.00
72685;BME280;61365;52.162;4.500;2022-12-19T01:38:35;101471.53;;;1.44;100.00
72685;BME280;61365;52.162;4.500;2022-12-19T01:41:03;101468.19;;;1.46;100.00
72685;BME280;61365;52.162;4.500;2022-12-19T01:43:51;101456.06;;;1.45;100.00
72685;BME280;61365;52.162;4.500;2022-12-19T01:46:25;101458.56;;;1.62;100.00
72685;BME280;61365;52.162;4.500;2022-12-19T01:48:59;101461.25;;;1.65;100.00
72685;BME280;61365;52.162;4.500;2022-12-19T01:51:34;101454.25;;;1.62;100.00
72685;BME280;61365;52.162;4.500;2022-12-19T01:54:07;101453.59;;;1.67;100.00
72685;BME280;61365;52.162;4.500;2022-12-19T01:56:40;101458.50;;;1.80;100.00
72685;BME280;61365;52.162;4.500;2022-12-19T01:59:17;101451.69;;;1.82;100.00
72685;BME280;61365;52.162;4.500;2022-12-19T02:02:14;101453.25;;;1.78;100.00
72685;BME280;61365;52.162;4.500;2022-12-19T02:04:46;101437.88;;;1.82;100.00
72685;BME280;61365;52.162;4.500;2022-12-19T02:07:15;101432.38;;;1.74;100.00
72685;BME280;61365;52.162;4.500;2022-12-19T02:09:45;101426.47;;;1.78;100.00
72685;BME280;61365;52.162;4.500;2022-12-19T02:12:14;101425.59;;;1.97;100.00
72685;BME280;61365;52.162;4.500;2022-12-19T02:14:40;101415.88;;;1.91;100.00
72685;BME280;61365;52.162;4.500;2022-12-19T02:20:43;101400.97;;;2.07;100.00
72685;BME280;61365;52.162;4.500;2022-12-19T02:26:59;101389.00;;;2.09;100.00
72685;BME280;61365;52.162;4.500;2022-12-19T02:30:04;101384.72;;;2.09;100.00
72685;BME280;61365;52.162;4.500;2022-12-19T02:43:36;101376.56;;;2.21;100.00
72685;BME280;61365;52.162;4.500;2022-12-19T02:46:08;101378.78;;;2.33;100.00
72685;BME280;61365;52.162;4.500;2022-12-19T02:48:37;101367.53;;;2.33;100.00
72685;BME280;61365;52.162;4.500;2022-12-19T02:51:05;101366.09;;;2.39;100.00
72685;BME280;61365;52.162;4.500;2022-12-19T02:53:32;101357.31;;;2.36;100.00
72685;BME280;61365;52.162;4.500;2022-12-19T02:56:39;101365.19;;;2.39;100.00
72685;BME280;61365;52.162;4.500;2022-12-19T03:01:58;101369.88;;;2.48;100.00
72685;BME280;61365;52.162;4.500;2022-12-19T03:04:47;101362.59;;;2.60;100.00
72685;BME280;61365;52.162;4.500;2022-12-19T03:07:35;101357.59;;;2.65;100.00
72685;BME280;61365;52.162;4.500;2022-12-19T03:10:41;101353.38;;;2.67;100.00
72685;BME280;61365;52.162;4.500;2022-12-19T03:13:16;101356.72;;;2.64;100.00
72685;BME280;61365;52.162;4.500;2022-12-19T03:15:47;101353.78;;;2.78;100.00
72685;BME280;61365;52.162;4.500;2022-12-19T03:18:14;101358.91;;;2.76;100.00
72685;BME280;61365;52.162;4.500;2022-12-19T03:23:32;101343.59;;;2.82;100.00
72685;BME280;61365;52.162;4.500;2022-12-19T03:26:06;101338.53;;;2.85;100.00
72685;BME280;61365;52.162;4.500;2022-12-19T03:28:58;101336.84;;;2.86;100.00
72685;BME280;61365;52.162;4.500;2022-12-19T03:31:30;101329.22;;;2.91;100.00
72685;BME280;61365;52.162;4.500;2022-12-19T03:34:02;101332.19;;;3.00;100.00
72685;BME280;61365;52.162;4.500;2022-12-19T03:36:39;101325.44;;;3.05;100.00
72685;BME280;61365;52.162;4.500;2022-12-19T03:39:11;101319.38;;;3.05;100.00
72685;BME280;61365;52.162;4.500;2022-12-19T03:41:42;101326.59;;;3.13;100.00
72685;BME280;61365;52.162;4.500;2022-12-19T03:44:31;101325.25;;;3.23;100.00
72685;BME280;61365;52.162;4.500;2022-12-19T03:47:09;101317.41;;;3.22;100.00
72685;BME280;61365;52.162;4.500;2022-12-19T03:49:42;101310.22;;;3.14;100.00
72685;BME280;61365;52.162;4.500;2022-12-19T03:55:39;101312.84;;;3.39;100.00
72685;BME280;61365;52.162;4.500;2022-12-19T03:58:16;101316.06;;;3.33;100.00
72685;BME280;61365;52.162;4.500;2022-12-19T04:00:52;101312.88;;;3.40;100.00
72685;BME280;61365;52.162;4.500;2022-12-19T04:03:20;101308.38;;;3.35;100.00
72685;BME280;61365;52.162;4.500;2022-12-19T04:05:49;101306.88;;;3.41;100.00
72685;BME280;61365;52.162;4.500;2022-12-19T04:08:17;101309.69;;;3.48;100.00
72685;BME280;61365;52.162;4.500;2022-12-19T04:10:49;101302.44;;;3.63;100.00
72685;BME280;61365;52.162;4.500;2022-12-19T04:13:26;101306.31;;;3.50;100.00
72685;BME280;61365;52.162;4.500;2022-12-19T04:16:22;101301.75;;;3.69;100.00
72685;BME280;61365;52.162;4.500;2022-12-19T04:18:58;101301.75;;;3.69;100.00
72685;BME280;61365;52.162;4.500;2022-12-19T04:21:58;101318.03;;;3.89;100.00
72685;BME280;61365;52.162;4.500;2022-12-19T04:24:33;101295.34;;;3.83;100.00
72685;BME280;61365;52.162;4.500;2022-12-19T04:27:04;101310.97;;;3.85;100.00
72685;BME280;61365;52.162;4.500;2022-12-19T04:29:34;101304.78;;;3.81;100.00
72685;BME280;61365;52.162;4.500;2022-12-19T04:32:03;101312.94;;;3.92;100.00
72685;BME280;61365;52.162;4.500;2022-12-19T04:34:33;101304.38;;;3.95;100.00
72685;BME280;61365;52.162;4.500;2022-12-19T04:36:59;101301.66;;;3.91;100.00
72685;BME280;61365;52.162;4.500;2022-12-19T04:39:26;101302.56;;;3.92;100.00
72685;BME280;61365;52.162;4.500;2022-12-19T04:41:53;101286.47;;;4.02;100.00
72685;BME280;61365;52.162;4.500;2022-12-19T04:44:19;101291.66;;;4.02;100.00
72685;BME280;61365;52.162;4.500;2022-12-19T04:46:46;101303.03;;;4.06;100.00
72685;BME280;61365;52.162;4.500;2022-12-19T04:49:12;101290.19;;;4.11;100.00
72685;BME280;61365;52.162;4.500;2022-12-19T04:51:39;101292.78;;;4.11;100.00
72685;BME280;61365;52.162;4.500;2022-12-19T04:54:05;101294.63;;;4.15;100.00
72685;BME280;61365;52.162;4.500;2022-12-19T04:56:32;101291.22;;;4.16;100.00
72685;BME280;61365;52.162;4.500;2022-12-19T04:58:58;101281.16;;;4.27;100.00
72685;BME280;61365;52.162;4.500;2022-12-19T05:01:26;101285.09;;;4.41;100.00
72685;BME280;61365;52.162;4.500;2022-12-19T05:03:52;101280.66;;;4.39;100.00
72685;BME280;61365;52.162;4.500;2022-12-19T05:06:19;101279.75;;;4.36;100.00
72685;BME280;61365;52.162;4.500;2022-12-19T05:08:45;101284.25;;;4.42;100.00
72685;BME280;61365;52.162;4.500;2022-12-19T05:11:14;101266.81;;;4.38;100.00
72685;BME280;61365;52.162;4.500;2022-12-19T05:13:41;101274.22;;;4.53;100.00
72685;BME280;61365;52.162;4.500;2022-12-19T05:16:09;101270.91;;;4.59;100.00
72685;BME280;61365;52.162;4.500;2022-12-19T05:18:37;101276.28;;;4.65;100.00
72685;BME280;61365;52.162;4.500;2022-12-19T05:21:04;101281.63;;;4.70;100.00
72685;BME280;61365;52.162;4.500;2022-12-19T05:23:31;101285.09;;;4.70;100.00
72685;BME280;61365;52.162;4.500;2022-12-19T05:25:58;101278.69;;;4.88;100.00
72685;BME280;61365;52.162;4.500;2022-12-19T05:28:26;101273.84;;;5.00;100.00
72685;BME280;61365;52.162;4.500;2022-12-19T05:31:13;101279.13;;;5.03;100.00
72685;BME280;61365;52.162;4.500;2022-12-19T05:33:42;101280.91;;;5.04;100.00
72685;BME280;61365;52.162;4.500;2022-12-19T05:36:10;101278.28;;;5.04;100.00
72685;BME280;61365;52.162;4.500;2022-12-19T05:38:37;101284.16;;;4.97;100.00
72685;BME280;61365;52.162;4.500;2022-12-19T05:41:11;101280.16;;;5.08;100.00
72685;BME280;61365;52.162;4.500;2022-12-19T05:43:39;101277.44;;;5.04;100.00
72685;BME280;61365;52.162;4.500;2022-12-19T05:46:06;101282.47;;;4.99;100.00
72685;BME280;61365;52.162;4.500;2022-12-19T05:48:34;101274.34;;;5.19;100.00
72685;BME280;61365;52.162;4.500;2022-12-19T05:51:01;101277.00;;;5.20;100.00
72685;BME280;61365;52.162;4.500;2022-12-19T05:53:27;101274.34;;;5.19;100.00
72685;BME280;61365;52.162;4.500;2022-12-19T05:58:37;101270.69;;;5.10;100.00
72685;BME280;61365;52.162;4.500;2022-12-19T06:01:11;101264.75;;;5.16;100.00
72685;BME280;61365;52.162;4.500;2022-12-19T06:03:40;101274.06;;;5.08;100.00
72685;BME280;61365;52.162;4.500;2022-12-19T06:06:15;101272.69;;;5.21;100.00
72685;BME280;61365;52.162;4.500;2022-12-19T06:08:43;101268.38;;;5.21;100.00
72685;BME280;61365;52.162;4.500;2022-12-19T06:11:11;101263.09;;;5.20;100.00
72685;BME280;61365;52.162;4.500;2022-12-19T06:13:39;101260.81;;;5.31;100.00
72685;BME280;61365;52.162;4.500;2022-12-19T06:16:10;101254.66;;;5.27;100.00
72685;BME280;61365;52.162;4.500;2022-12-19T06:18:39;101256.31;;;5.25;100.00
72685;BME280;61365;52.162;4.500;2022-12-19T06:21:11;101246.19;;;5.34;100.00
72685;BME280;61365;52.162;4.500;2022-12-19T06:23:40;101265.16;;;5.32;100.00
72685;BME280;61365;52.162;4.500;2022-12-19T06:26:09;101265.41;;;5.39;100.00
72685;BME280;61365;52.162;4.500;2022-12-19T06:28:38;101261.25;;;5.46;100.00
72685;BME280;61365;52.162;4.500;2022-12-19T06:31:05;101263.88;;;5.48;100.00
72685;BME280;61365;52.162;4.500;2022-12-19T06:33:33;101267.38;;;5.48;100.00
72685;BME280;61365;52.162;4.500;2022-12-19T06:36:05;101271.66;;;5.46;100.00
72685;BME280;61365;52.162;4.500;2022-12-19T06:38:35;101268.28;;;5.50;100.00
72685;BME280;61365;52.162;4.500;2022-12-19T06:41:02;101269.53;;;5.65;100.00
72685;BME280;61365;52.162;4.500;2022-12-19T06:43:47;101263.66;;;5.72;100.00
72685;BME280;61365;52.162;4.500;2022-12-19T06:46:14;101267.81;;;5.65;100.00
72685;BME280;61365;52.162;4.500;2022-12-19T06:48:40;101273.38;;;5.79;100.00
72685;BME280;61365;52.162;4.500;2022-12-19T06:51:07;101266.44;;;5.80;100.00
72685;BME280;61365;52.162;4.500;2022-12-19T06:53:33;101275.19;;;5.83;100.00
72685;BME280;61365;52.162;4.500;2022-12-19T06:56:00;101275.19;;;5.82;100.00
72685;BME280;61365;52.162;4.500;2022-12-19T06:58:26;101274.22;;;5.78;100.00
72685;BME280;61365;52.162;4.500;2022-12-19T07:00:53;101275.94;;;5.78;100.00
72685;BME280;61365;52.162;4.500;2022-12-19T07:03:25;101270.91;;;5.85;100.00
72685;BME280;61365;52.162;4.500;2022-12-19T07:05:57;101288.28;;;5.85;100.00
72685;BME280;61365;52.162;4.500;2022-12-19T07:08:23;101287.47;;;5.88;100.00
72685;BME280;61365;52.162;4.500;2022-12-19T07:10:49;101274.44;;;5.88;100.00
72685;BME280;61365;52.162;4.500;2022-12-19T07:13:17;101276.25;;;5.90;100.00
72685;BME280;61365;52.162;4.500;2022-12-19T07:15:44;101286.63;;;5.89;100.00
72685;BME280;61365;52.162;4.500;2022-12-19T07:18:10;101295.44;;;5.94;100.00
72685;BME280;61365;52.162;4.500;2022-12-19T07:20:37;101301.56;;;5.96;100.00
72685;BME280;61365;52.162;4.500;2022-12-19T07:23:13;101285.94;;;5.96;100.00
72685;BME280;61365;52.162;4.500;2022-12-19T07:25:43;101296.56;;;6.02;100.00
72685;BME280;61365;52.162;4.500;2022-12-19T07:28:10;101289.72;;;6.07;100.00
72685;BME280;61365;52.162;4.500;2022-12-19T07:30:36;101300.94;;;6.05;100.00
72685;BME280;61365;52.162;4.500;2022-12-19T07:33:03;101286.47;;;6.16;100.00
72685;BME280;61365;52.162;4.500;2022-12-19T07:35:29;101304.50;;;6.08;100.00
72685;BME280;61365;52.162;4.500;2022-12-19T07:38:04;101301.91;;;6.08;100.00
72685;BME280;61365;52.162;4.500;2022-12-19T07:40:33;101302.13;;;6.16;100.00
72685;BME280;61365;52.162;4.500;2022-12-19T07:43:01;101292.41;;;6.10;100.00
72685;BME280;61365;52.162;4.500;2022-12-19T07:45:31;101310.69;;;6.12;100.00
72685;BME280;61365;52.162;4.500;2022-12-19T07:48:00;101310.88;;;6.20;100.00
72685;BME280;61365;52.162;4.500;2022-12-19T07:50:28;101304.91;;;6.24;100.00
72685;BME280;61365;52.162;4.500;2022-12-19T07:52:56;101302.13;;;6.16;100.00
72685;BME280;61365;52.162;4.500;2022-12-19T07:55:24;101298.84;;;6.25;100.00
72685;BME280;61365;52.162;4.500;2022-12-19T07:57:51;101295.41;;;6.26;100.00
72685;BME280;61365;52.162;4.500;2022-12-19T08:00:18;101303.50;;;6.38;100.00
72685;BME280;61365;52.162;4.500;2022-12-19T08:02:45;101321.25;;;6.18;100.00
72685;BME280;61365;52.162;4.500;2022-12-19T08:05:11;101316.94;;;6.19;100.00
72685;BME280;61365;52.162;4.500;2022-12-19T08:07:38;101319.56;;;6.20;100.00
72685;BME280;61365;52.162;4.500;2022-12-19T08:10:04;101315.50;;;6.30;100.00
72685;BME280;61365;52.162;4.500;2022-12-19T08:12:36;101325.00;;;6.29;100.00
72685;BME280;61365;52.162;4.500;2022-12-19T08:15:02;101323.06;;;6.21;100.00
72685;BME280;61365;52.162;4.500;2022-12-19T08:17:30;101329.22;;;6.24;100.00
72685;BME280;61365;52.162;4.500;2022-12-19T08:19:56;101340.84;;;6.37;100.00
72685;BME280;61365;52.162;4.500;2022-12-19T08:22:23;101335.34;;;6.25;100.00
72685;BME280;61365;52.162;4.500;2022-12-19T08:24:49;101336.19;;;6.25;100.00
72685;BME280;61365;52.162;4.500;2022-12-19T08:27:16;101326.69;;;6.26;100.00
72685;BME280;61365;52.162;4.500;2022-12-19T08:29:42;101326.81;;;6.32;100.00
72685;BME280;61365;52.162;4.500;2022-12-19T08:32:08;101319.72;;;6.26;100.00
72685;BME280;61365;52.162;4.500;2022-12-19T08:34:35;101328.38;;;6.25;100.00
72685;BME280;61365;52.162;4.500;2022-12-19T08:37:01;101337.22;;;6.32;100.00
72685;BME280;61365;52.162;4.500;2022-12-19T08:39:27;101328.53;;;6.31;100.00
72685;BME280;61365;52.162;4.500;2022-12-19T08:41:54;101329.19;;;6.23;100.00
72685;BME280;61365;52.162;4.500;2022-12-19T08:44:20;101342.53;;;6.35;100.00
72685;BME280;61365;52.162;4.500;2022-12-19T08:46:46;101336.53;;;6.39;100.00
72685;BME280;61365;52.162;4.500;2022-12-19T08:49:14;101327.13;;;6.46;100.00
72685;BME280;61365;52.162;4.500;2022-12-19T08:51:40;101334.25;;;6.52;100.00
72685;BME280;61365;52.162;4.500;2022-12-19T08:54:06;101331.38;;;6.41;100.00
72685;BME280;61365;52.162;4.500;2022-12-19T08:56:33;101323.81;;;6.52;100.00
72685;BME280;61365;52.162;4.500;2022-12-19T08:59:00;101334.16;;;6.49;100.00
72685;BME280;61365;52.162;4.500;2022-12-19T09:01:26;101346.19;;;6.42;100.00
72685;BME280;61365;52.162;4.500;2022-12-19T09:03:57;101336.69;;;6.45;100.00
72685;BME280;61365;52.162;4.500;2022-12-19T09:06:24;101329.53;;;6.37;100.00
72685;BME280;61365;52.162;4.500;2022-12-19T09:08:51;101336.78;;;6.49;100.00
72685;BME280;61365;52.162;4.500;2022-12-19T09:11:19;101336.63;;;6.44;100.00
72685;BME280;61365;52.162;4.500;2022-12-19T09:13:47;101341.00;;;6.45;100.00
72685;BME280;61365;52.162;4.500;2022-12-19T09:16:20;101336.06;;;6.56;100.00
72685;BME280;61365;52.162;4.500;2022-12-19T09:18:50;101341.25;;;6.54;100.00
72685;BME280;61365;52.162;4.500;2022-12-19T09:21:19;101336.09;;;6.57;100.00
72685;BME280;61365;52.162;4.500;2022-12-19T09:23:53;101346.44;;;6.53;100.00
72685;BME280;61365;52.162;4.500;2022-12-19T09:26:22;101344.78;;;6.58;100.00
72685;BME280;61365;52.162;4.500;2022-12-19T09:28:50;101338.72;;;6.57;100.00
72685;BME280;61365;52.162;4.500;2022-12-19T09:31:19;101344.59;;;6.49;100.00
72685;BME280;61365;52.162;4.500;2022-12-19T09:33:47;101348.41;;;6.63;100.00
72685;BME280;61365;52.162;4.500;2022-12-19T09:36:19;101357.81;;;6.56;100.00
72685;BME280;61365;52.162;4.500;2022-12-19T09:38:49;101354.44;;;6.60;100.00
72685;BME280;61365;52.162;4.500;2022-12-19T09:44:56;101351.78;;;6.59;100.00
72685;BME280;61365;52.162;4.500;2022-12-19T09:47:38;101357.06;;;6.62;100.00
72685;BME280;61365;52.162;4.500;2022-12-19T09:50:38;101358.97;;;6.69;100.00
72685;BME280;61365;52.162;4.500;2022-12-19T09:53:18;101359.66;;;6.62;100.00
72685;BME280;61365;52.162;4.500;2022-12-19T09:55:56;101365.03;;;6.68;100.00
72685;BME280;61365;52.162;4.500;2022-12-19T09:58:55;101350.22;;;6.66;100.00
72685;BME280;61365;52.162;4.500;2022-12-19T10:01:34;101361.84;;;6.80;100.00
72685;BME280;61365;52.162;4.500;2022-12-19T10:04:15;101369.56;;;6.75;100.00
72685;BME280;61365;52.162;4.500;2022-12-19T10:06:44;101367.13;;;6.83;100.00
72685;BME280;61365;52.162;4.500;2022-12-19T10:09:13;101354.84;;;6.79;100.00
72685;BME280;61365;52.162;4.500;2022-12-19T10:20:29;101359.31;;;7.25;98.24
72685;BME280;61365;52.162;4.500;2022-12-19T10:29:14;101369.13;;;7.36;97.44
72685;BME280;61365;52.162;4.500;2022-12-19T10:32:02;101359.75;;;7.46;97.40
72685;BME280;61365;52.162;4.500;2022-12-19T10:34:39;101358.75;;;7.40;97.48
72685;BME280;61365;52.162;4.500;2022-12-19T10:37:16;101346.63;;;7.42;96.99
72685;BME280;61365;52.162;4.500;2022-12-19T10:42:50;101336.88;;;7.33;97.11
72685;BME280;61365;52.162;4.500;2022-12-19T10:45:36;101350.06;;;7.41;98.09
72685;BME280;61365;52.162;4.500;2022-12-19T10:48:15;101357.84;;;7.38;98.16
72685;BME280;61365;52.162;4.500;2022-12-19T10:50:44;101345.69;;;7.40;97.75
72685;BME280;61365;52.162;4.500;2022-12-19T10:53:12;101337.06;;;7.42;97.06
72685;BME280;61365;52.162;4.500;2022-12-19T10:55:50;101338.75;;;7.40;97.83
72685;BME280;61365;52.162;4.500;2022-12-19T10:58:36;101338.84;;;7.43;97.88
72685;BME280;61365;52.162;4.500;2022-12-19T11:01:13;101325.97;;;7.54;97.40
72685;BME280;61365;52.162;4.500;2022-12-19T11:03:48;101332.72;;;7.44;97.64
72685;BME280;61365;52.162;4.500;2022-12-19T11:09:19;101338.00;;;7.46;97.87
72685;BME280;61365;52.162;4.500;2022-12-19T11:12:16;101333.69;;;7.48;97.51
72685;BME280;61365;52.162;4.500;2022-12-19T11:15:12;101320.72;;;7.53;97.72
72685;BME280;61365;52.162;4.500;2022-12-19T11:17:41;101326.06;;;7.59;97.56
72685;BME280;61365;52.162;4.500;2022-12-19T11:20:16;101320.06;;;7.64;97.52
72685;BME280;61365;52.162;4.500;2022-12-19T11:22:56;101313.28;;;7.74;98.02
72685;BME280;61365;52.162;4.500;2022-12-19T11:25:39;101313.28;;;7.74;97.51
72685;BME280;61365;52.162;4.500;2022-12-19T11:31:22;101316.84;;;7.79;97.20
72685;BME280;61365;52.162;4.500;2022-12-19T11:33:54;101316.84;;;7.79;98.21
72685;BME280;61365;52.162;4.500;2022-12-19T11:36:35;101318.44;;;7.71;98.27
72685;BME280;61365;52.162;4.500;2022-12-19T11:39:30;101316.91;;;7.81;98.66
72685;BME280;61365;52.162;4.500;2022-12-19T11:45:13;101310.84;;;7.85;98.21
72685;BME280;61365;52.162;4.500;2022-12-19T11:48:02;101298.38;;;7.69;99.76
72685;BME280;61365;52.162;4.500;2022-12-19T11:51:48;101305.34;;;7.70;100.00
72685;BME280;61365;52.162;4.500;2022-12-19T11:56:54;101304.38;;;7.64;100.00
72685;BME280;61365;52.162;4.500;2022-12-19T12:05:34;101285.31;;;7.69;100.00
72685;BME280;61365;52.162;4.500;2022-12-19T12:11:43;101279.22;;;7.68;100.00
72685;BME280;61365;52.162;4.500;2022-12-19T12:14:23;101274.69;;;7.59;100.00
72685;BME280;61365;52.162;4.500;2022-12-19T12:17:43;101267.69;;;7.58;100.00
72685;BME280;61365;52.162;4.500;2022-12-19T12:23:32;101264.09;;;7.51;100.00
72685;BME280;61365;52.162;4.500;2022-12-19T12:26:26;101267.69;;;7.57;100.00
72685;BME280;61365;52.162;4.500;2022-12-19T12:29:12;101266.03;;;7.62;100.00
72685;BME280;61365;52.162;4.500;2022-12-19T12:37:40;101269.56;;;7.64;100.00
72685;BME280;61365;52.162;4.500;2022-12-19T12:46:25;101272.13;;;7.61;100.00
72685;BME280;61365;52.162;4.500;2022-12-19T12:49:00;101256.28;;;7.51;100.00
72685;BME280;61365;52.162;4.500;2022-12-19T12:51:31;101259.00;;;7.58;100.00
72685;BME280;61365;52.162;4.500;2022-12-19T12:54:05;101260.66;;;7.53;100.00
72685;BME280;61365;52.162;4.500;2022-12-19T12:56:38;101254.75;;;7.63;99.81
72685;BME280;61365;52.162;4.500;2022-12-19T12:59:26;101258.16;;;7.60;99.18
72685;BME280;61365;52.162;4.500;2022-12-19T13:02:09;101247.94;;;7.73;98.10
72685;BME280;61365;52.162;4.500;2022-12-19T13:04:54;101239.22;;;7.72;97.25
72685;BME280;61365;52.162;4.500;2022-12-19T13:07:29;101239.28;;;7.75;97.63
72685;BME280;61365;52.162;4.500;2022-12-19T13:12:52;101233.13;;;7.73;97.12
72685;BME280;61365;52.162;4.500;2022-12-19T13:28:13;101208.31;;;8.00;95.46
72685;BME280;61365;52.162;4.500;2022-12-19T13:33:45;101203.09;;;8.00;94.53
72685;BME280;61365;52.162;4.500;2022-12-19T13:36:52;101193.47;;;7.97;94.26
72685;BME280;61365;52.162;4.500;2022-12-19T13:39:26;101198.72;;;7.97;94.14
72685;BME280;61365;52.162;4.500;2022-12-19T13:42:10;101191.72;;;7.96;94.64
72685;BME280;61365;52.162;4.500;2022-12-19T13:45:26;101198.72;;;7.99;94.80
72685;BME280;61365;52.162;4.500;2022-12-19T13:47:58;101197.97;;;8.06;94.20
72685;BME280;61365;52.162;4.500;2022-12-19T13:52:58;101184.03;;;8.07;93.55
72685;BME280;61365;52.162;4.500;2022-12-19T13:55:27;101179.72;;;8.09;93.96
72685;BME280;61365;52.162;4.500;2022-12-19T13:57:55;101187.50;;;8.06;94.30
72685;BME280;61365;52.162;4.500;2022-12-19T14:00:42;101187.56;;;8.09;94.00
72685;BME280;61365;52.162;4.500;2022-12-19T14:03:14;101192.88;;;8.17;92.71
72685;BME280;61365;52.162;4.500;2022-12-19T14:05:45;101175.50;;;8.18;93.29
72685;BME280;61365;52.162;4.500;2022-12-19T14:08:19;101181.53;;;8.14;92.59
72685;BME280;61365;52.162;4.500;2022-12-19T14:10:49;101184.13;;;8.14;93.10
72685;BME280;61365;52.162;4.500;2022-12-19T14:13:20;101189.53;;;8.24;92.25
72685;BME280;61365;52.162;4.500;2022-12-19T14:16:14;101191.38;;;8.32;92.20
72685;BME280;61365;52.162;4.500;2022-12-19T14:18:47;101194.75;;;8.26;91.80
72685;BME280;61365;52.162;4.500;2022-12-19T14:21:21;101200.97;;;8.34;91.61
72685;BME280;61365;52.162;4.500;2022-12-19T14:23:49;101207.97;;;8.35;91.28
72685;BME280;61365;52.162;4.500;2022-12-19T14:26:24;101210.50;;;8.29;91.28
72685;BME280;61365;52.162;4.500;2022-12-19T14:29:08;101218.34;;;8.29;91.63
72685;BME280;61365;52.162;4.500;2022-12-19T14:31:40;101213.94;;;8.26;91.33
72685;BME280;61365;52.162;4.500;2022-12-19T14:34:21;101215.75;;;8.31;91.09
72685;BME280;61365;52.162;4.500;2022-12-19T14:36:54;101210.44;;;8.26;91.38
72685;BME280;61365;52.162;4.500;2022-12-19T14:39:25;101208.78;;;8.31;91.24
72685;BME280;61365;52.162;4.500;2022-12-19T14:42:10;101204.34;;;8.25;91.70
72685;BME280;61365;52.162;4.500;2022-12-19T14:44:57;101201.84;;;8.35;91.22
72685;BME280;61365;52.162;4.500;2022-12-19T14:47:33;101210.44;;;8.24;91.78
72685;BME280;61365;52.162;4.500;2022-12-19T14:50:01;101215.50;;;8.14;93.32
72685;BME280;61365;52.162;4.500;2022-12-19T14:52:45;101205.91;;;8.14;92.86
72685;BME280;61365;52.162;4.500;2022-12-19T14:57:48;101228.47;;;8.06;93.00
72685;BME280;61365;52.162;4.500;2022-12-19T15:02:55;101192.84;;;8.13;91.91
72685;BME280;61365;52.162;4.500;2022-12-19T15:05:25;101205.00;;;8.12;91.71
72685;BME280;61365;52.162;4.500;2022-12-19T15:07:54;101208.66;;;8.23;91.02
72685;BME280;61365;52.162;4.500;2022-12-19T15:10:24;101194.75;;;8.24;90.47
72685;BME280;61365;52.162;4.500;2022-12-19T15:13:01;101180.63;;;8.13;90.59
72685;BME280;61365;52.162;4.500;2022-12-19T15:15:54;101182.38;;;8.14;90.22
72685;BME280;61365;52.162;4.500;2022-12-19T15:21:03;101178.84;;;8.10;90.57
72685;BME280;61365;52.162;4.500;2022-12-19T15:23:33;101167.53;;;8.11;89.96